Mooresville, Texas
Current Conditions -  °F | °C
As of 11:15 PM on Monday 20 Oct 2014 (Local Time) from KPWG Reporting Station
Clear Clear  
Wind Chill: 64°   Ceiling: Unl
Heat Index: 64°   Visibility: 10mi
Dew Point: 55°   Wind: 0mph
Humidity: 73%   Direction: NA
Pressure: 30.07"   Gusts: NA
Location:  31.2985°N, 97.112°W
Report Text: KPWG 210415Z AUTO 00000KT 10SM CLR 18/13 A3007 RMK AO1
Loading
Personal Weather Stations






























Interactive Weather Map New forecast layout! Learn more

10-Day Weather Forecast

Advertisements
Track Severe Weather on mobile